CheckWX is a tool to help pilots better visualize weather data.  It is not intended as a substitute for an official pre-flight weather briefing.

20:32:45 UTC

KCAE TAF
Columbia Metropolitan Airport
Columbia, South Carolina, USA
KCAE 222020Z 2220/2318 26012G20KT P6SM SKC FM230000 28006KT P6SM SKC FM230500 VRB04KT P6SM SKC

Mar-22@
20:00 UTC

Mar-22 @ 20:00 UTC

Mar-23@
00:00 UTC

Mar-23 @ 00:00 UTC

KCAE 222020Z 2220/2318 26012G20KT P6SM SKC
Wind
  • 260° at 12 KTS
  • {Gusting to 20 KTS
Cloud Levels
  • Clear skies

Mar-23@
00:00 UTC

Mar-23 @ 00:00 UTC

Mar-23@
05:00 UTC

Mar-23 @ 05:00 UTC

FM230000 28006KT P6SM SKC

From

From Standard forecast or significant change

Wind
  • 280° at 6 KTS
Cloud Levels
  • Clear skies

Mar-23@
05:00 UTC

Mar-23 @ 05:00 UTC

Mar-23@
18:00 UTC

Mar-23 @ 18:00 UTC

FM230500 VRB04KT P6SM SKC

From

From Standard forecast or significant change

Wind
  • Variable at 4 KTS
Cloud Levels
  • Clear skies